createdAt,value
2023-02-20T00:02:16.665Z,79.91
2023-02-20T00:06:19.860Z,80.59
2023-02-20T00:10:26.063Z,80.42
2023-02-20T00:14:26.451Z,80.89
2023-02-20T00:18:26.881Z,81.00
2023-02-20T00:22:28.850Z,81.55
2023-02-20T00:26:31.961Z,81.84
2023-02-20T00:30:32.497Z,81.45
2023-02-20T00:34:33.101Z,81.11
2023-02-20T00:38:33.435Z,80.39
2023-02-20T00:42:38.204Z,80.16
2023-02-20T00:46:39.555Z,80.88
2023-02-20T00:50:39.852Z,81.95
2023-02-20T00:54:40.154Z,80.79
2023-02-20T00:58:43.472Z,81.40
2023-02-20T01:02:47.221Z,80.90
2023-02-20T01:06:47.485Z,80.11
2023-02-20T01:10:48.087Z,79.91
2023-02-20T01:14:51.091Z,79.02
2023-02-20T01:18:53.999Z,79.05
2023-02-20T01:22:54.688Z,79.31
2023-02-20T01:26:54.990Z,78.72
2023-02-20T01:30:58.203Z,78.92
2023-02-20T01:34:58.920Z,78.13
2023-02-20T01:38:59.579Z,78.69
2023-02-20T01:42:59.790Z,78.83
2023-02-20T01:47:04.565Z,78.29
2023-02-20T01:51:05.225Z,78.78
2023-02-20T01:55:11.923Z,77.71
2023-02-20T01:59:13.034Z,77.66
2023-02-20T02:03:21.453Z,77.52
2023-02-20T02:07:23.339Z,76.61
2023-02-20T02:11:28.439Z,76.70
2023-02-20T02:15:29.708Z,76.76
2023-02-20T02:20:13.255Z,77.29
2023-02-20T02:24:58.145Z,78.22
2023-02-20T02:29:36.924Z,78.62
2023-02-20T02:34:09.239Z,77.59
2023-02-20T02:38:21.526Z,77.59
2023-02-20T02:42:32.768Z,77.55
2023-02-20T02:46:44.219Z,77.17
2023-02-20T02:50:49.529Z,76.13
2023-02-20T02:54:53.572Z,74.20
2023-02-20T02:58:58.098Z,73.95
2023-02-20T03:03:06.692Z,74.66
2023-02-20T03:07:13.290Z,74.24
2023-02-20T03:11:20.886Z,73.82
2023-02-20T03:15:37.064Z,74.67
2023-02-20T03:19:44.092Z,75.27
2023-02-20T03:23:51.537Z,75.28
2023-02-20T03:28:00.945Z,75.57
2023-02-20T03:32:21.013Z,74.16
2023-02-20T03:36:43.438Z,74.72
2023-02-20T03:40:57.819Z,74.31
2023-02-20T03:45:07.010Z,74.55
2023-02-20T03:49:14.700Z,74.85
2023-02-20T03:53:18.304Z,75.27
2023-02-20T03:57:23.135Z,75.14
2023-02-20T04:01:31.845Z,75.45
2023-02-20T04:05:41.870Z,74.91
2023-02-20T04:09:49.305Z,74.49
2023-02-20T04:13:54.335Z,75.49
2023-02-20T04:18:07.287Z,74.35
2023-02-20T04:22:15.036Z,74.51
2023-02-20T04:26:21.213Z,74.53
2023-02-20T04:30:24.382Z,74.11
2023-02-20T04:34:28.150Z,74.83
2023-02-20T04:38:29.330Z,74.26
2023-02-20T04:42:31.122Z,74.22
2023-02-20T04:46:32.274Z,74.13
2023-02-20T04:50:38.161Z,73.33
2023-02-20T04:54:40.248Z,73.98
2023-02-20T04:58:43.007Z,73.39
2023-02-20T05:02:52.262Z,74.48
2023-02-20T05:06:58.059Z,73.50
2023-02-20T05:10:58.682Z,73.57
2023-02-20T05:14:58.987Z,74.15
2023-02-20T05:19:00.906Z,73.80
2023-02-20T05:23:04.022Z,73.75
2023-02-20T05:27:04.372Z,74.99
2023-02-20T05:31:04.573Z,74.59
2023-02-20T05:35:05.247Z,74.49
2023-02-20T05:39:09.136Z,74.80
2023-02-20T05:43:09.554Z,74.72
2023-02-20T05:47:10.233Z,73.44
2023-02-20T05:51:10.600Z,72.68
2023-02-20T05:55:14.030Z,73.37
2023-02-20T05:59:15.009Z,73.39
2023-02-20T06:03:19.034Z,73.05
2023-02-20T06:07:19.624Z,72.26
2023-02-20T06:11:22.952Z,72.25
2023-02-20T06:15:23.455Z,72.77
2023-02-20T06:19:27.909Z,72.13
2023-02-20T06:23:28.774Z,72.25
2023-02-20T06:27:32.034Z,72.51
2023-02-20T06:31:32.576Z,71.73
2023-02-20T06:35:33.270Z,70.54
2023-02-20T06:39:35.601Z,70.69
2023-02-20T06:43:38.870Z,69.71
2023-02-20T06:47:39.428Z,70.19
2023-02-20T06:51:40.655Z,69.66
2023-02-20T06:55:41.057Z,68.89
2023-02-20T06:59:44.376Z,69.15
2023-02-20T07:03:45.141Z,69.49
2023-02-20T07:07:45.972Z,70.94
2023-02-20T07:11:47.064Z,70.60
2023-02-20T07:15:50.084Z,70.10
2023-02-20T07:19:50.552Z,69.88
2023-02-20T07:23:51.450Z,70.00
2023-02-20T07:27:52.060Z,70.42
2023-02-20T07:31:55.330Z,69.83
2023-02-20T07:35:55.806Z,69.83
2023-02-20T07:39:56.446Z,70.00
2023-02-20T07:43:57.006Z,69.55
2023-02-20T07:48:00.384Z,68.16
2023-02-20T07:52:01.283Z,67.22
2023-02-20T07:56:01.718Z,66.30
2023-02-20T08:00:02.067Z,67.49
2023-02-20T08:04:16.691Z,67.91
2023-02-20T08:08:17.266Z,68.11
2023-02-20T08:12:18.945Z,67.44
2023-02-20T08:16:19.469Z,67.47
2023-02-20T08:20:24.681Z,67.17
2023-02-20T08:24:25.230Z,64.75
2023-02-20T08:28:26.437Z,65.13
2023-02-20T08:32:26.983Z,64.94
2023-02-20T08:36:30.506Z,64.73
2023-02-20T08:40:31.133Z,65.50
2023-02-20T08:44:31.629Z,65.15
2023-02-20T08:48:32.513Z,64.20
2023-02-20T08:52:35.568Z,63.74
2023-02-20T08:56:36.151Z,63.21
2023-02-20T09:00:36.542Z,63.77
2023-02-20T09:04:36.812Z,64.94
2023-02-20T09:08:39.909Z,63.73
2023-02-20T09:12:42.288Z,63.62
2023-02-20T09:16:43.028Z,63.58
2023-02-20T09:20:44.391Z,62.70
2023-02-20T09:24:50.302Z,60.69
2023-02-20T09:28:50.784Z,59.35
2023-02-20T09:32:52.499Z,59.19
2023-02-20T09:36:54.792Z,58.16
2023-02-20T09:41:02.948Z,57.32
2023-02-20T09:45:17.035Z,56.89
2023-02-20T09:49:25.333Z,56.03
2023-02-20T09:53:34.470Z,55.81
2023-02-20T09:57:40.990Z,53.43
2023-02-20T10:01:49.161Z,53.05
2023-02-20T10:05:50.436Z,53.16
2023-02-20T10:09:51.191Z,52.69
2023-02-20T10:14:07.368Z,51.26
2023-02-20T10:18:22.880Z,51.11
2023-02-20T10:22:32.330Z,50.23
2023-02-20T10:26:38.177Z,49.66
2023-02-20T10:30:49.397Z,49.53
2023-02-20T10:35:01.844Z,49.93
2023-02-20T10:39:09.771Z,48.44
2023-02-20T10:43:21.412Z,47.38
2023-02-20T10:47:33.438Z,46.52
2023-02-20T10:51:42.554Z,46.56
2023-02-20T10:55:53.121Z,45.15
2023-02-20T11:00:03.029Z,45.69
2023-02-20T11:04:15.112Z,46.28
2023-02-20T11:08:21.240Z,48.25
2023-02-20T11:12:35.956Z,47.32
2023-02-20T11:16:44.312Z,46.96
2023-02-20T11:20:59.849Z,45.73
2023-02-20T11:25:20.534Z,45.27
2023-02-20T11:29:25.600Z,46.64
2023-02-20T11:33:29.415Z,46.82
2023-02-20T11:37:39.949Z,47.30
2023-02-20T11:41:42.941Z,47.61
2023-02-20T11:45:43.644Z,46.88
2023-02-20T11:49:44.014Z,46.66
2023-02-20T11:53:47.272Z,46.83
2023-02-20T11:57:49.086Z,46.08
2023-02-20T12:02:00.508Z,46.49
2023-02-20T12:06:04.436Z,45.75
2023-02-20T12:10:25.537Z,44.98
2023-02-20T12:14:26.634Z,45.04
2023-02-20T12:18:59.349Z,43.93
2023-02-20T12:23:13.752Z,41.63
2023-02-20T12:27:37.897Z,41.86
2023-02-20T12:31:58.149Z,43.02
2023-02-20T12:36:13.537Z,44.72
2023-02-20T12:40:40.465Z,44.74
2023-02-20T12:45:25.012Z,44.76
2023-02-20T12:50:06.710Z,45.57
2023-02-20T12:54:35.964Z,43.75
2023-02-20T12:58:50.767Z,42.93
2023-02-20T13:03:02.609Z,42.57
2023-02-20T13:07:13.266Z,42.25
2023-02-20T13:11:22.407Z,41.01
2023-02-20T13:15:39.221Z,41.42
2023-02-20T13:19:52.111Z,40.67
2023-02-20T13:23:54.217Z,40.55
2023-02-20T13:28:04.445Z,40.94
2023-02-20T13:32:24.543Z,39.20
2023-02-20T13:36:48.763Z,39.72
2023-02-20T13:41:06.954Z,39.66
2023-02-20T13:45:42.842Z,38.43
2023-02-20T13:50:01.719Z,37.49
2023-02-20T13:54:26.608Z,36.59
2023-02-20T13:58:27.443Z,36.61
2023-02-20T14:02:30.497Z,36.43
2023-02-20T14:06:31.538Z,36.67
2023-02-20T14:10:38.194Z,35.89
2023-02-20T14:14:45.845Z,37.17
2023-02-20T14:18:48.168Z,36.05
2023-02-20T14:22:50.616Z,35.45
2023-02-20T14:26:56.274Z,35.02
2023-02-20T14:31:26.507Z,35.58
2023-02-20T14:35:50.577Z,36.72
2023-02-20T14:40:00.960Z,37.00
2023-02-20T14:44:07.893Z,36.69
2023-02-20T14:48:09.653Z,37.44
2023-02-20T14:52:22.801Z,37.70
2023-02-20T14:56:23.017Z,37.34
2023-02-20T15:00:40.986Z,36.99
2023-02-20T15:04:50.344Z,37.66
2023-02-20T15:08:50.589Z,37.81
2023-02-20T15:13:00.085Z,38.19
2023-02-20T15:17:25.981Z,37.85
2023-02-20T15:21:38.870Z,37.28
2023-02-20T15:26:36.274Z,37.67
2023-02-20T15:30:38.263Z,36.70
2023-02-20T15:34:45.019Z,36.96
2023-02-20T15:38:45.411Z,38.16
2023-02-20T15:42:45.774Z,37.72
2023-02-20T15:46:46.615Z,37.44
2023-02-20T15:50:50.483Z,37.94
2023-02-20T15:54:57.416Z,40.15
2023-02-20T15:58:59.985Z,39.45
2023-02-20T16:03:01.055Z,40.47
2023-02-20T16:07:05.812Z,40.09
2023-02-20T16:11:06.238Z,40.35
2023-02-20T16:15:09.177Z,39.76
2023-02-20T16:19:24.119Z,39.67
2023-02-20T16:23:34.701Z,40.02
2023-02-20T16:27:35.475Z,40.37
2023-02-20T16:32:25.057Z,41.37
2023-02-20T16:36:26.420Z,41.74
2023-02-20T16:40:29.966Z,42.87
2023-02-20T16:44:40.769Z,43.15
2023-02-20T16:48:43.614Z,44.30
2023-02-20T16:52:46.421Z,43.17
2023-02-20T16:56:49.577Z,43.10
2023-02-20T17:00:57.467Z,43.35
2023-02-20T17:04:58.668Z,43.42
2023-02-20T17:09:01.031Z,43.61
2023-02-20T17:13:04.279Z,43.72
2023-02-20T17:17:05.009Z,43.78
2023-02-20T17:21:05.341Z,44.01
2023-02-20T17:25:06.007Z,44.00
2023-02-20T17:29:10.247Z,44.50
2023-02-20T17:33:10.825Z,45.17
2023-02-20T17:37:13.281Z,45.58
2023-02-20T17:41:14.907Z,45.57
2023-02-20T17:45:18.749Z,45.64
2023-02-20T17:49:19.617Z,45.68
2023-02-20T17:53:20.382Z,45.77
2023-02-20T17:57:22.538Z,45.17
2023-02-20T18:01:29.426Z,45.34
2023-02-20T18:05:29.892Z,45.85
2023-02-20T18:09:30.269Z,46.09
2023-02-20T18:13:30.994Z,46.17
2023-02-20T18:17:36.053Z,47.22
2023-02-20T18:21:41.936Z,47.45
2023-02-20T18:25:42.451Z,47.78
2023-02-20T18:29:43.463Z,47.97
2023-02-20T18:33:47.169Z,47.78
2023-02-20T18:37:47.683Z,48.49
2023-02-20T18:41:54.203Z,48.50
2023-02-20T18:45:55.087Z,48.56
2023-02-20T18:49:58.192Z,48.69
2023-02-20T18:53:59.308Z,49.13
2023-02-20T18:58:01.997Z,48.93
2023-02-20T19:02:06.061Z,48.98
2023-02-20T19:06:10.108Z,49.49
2023-02-20T19:10:13.994Z,50.26
2023-02-20T19:14:15.182Z,50.08
2023-02-20T19:18:17.061Z,49.74
2023-02-20T19:22:20.408Z,50.16
2023-02-20T19:26:21.000Z,50.87
2023-02-20T19:30:23.782Z,50.98
2023-02-20T19:34:25.800Z,51.03
2023-02-20T19:38:28.820Z,51.32
2023-02-20T19:42:29.715Z,51.51
2023-02-20T19:46:30.642Z,51.75
2023-02-20T19:50:31.241Z,51.93
2023-02-20T19:54:36.054Z,51.73
2023-02-20T19:58:40.043Z,52.02
2023-02-20T20:02:40.437Z,51.82
2023-02-20T20:06:41.017Z,52.50
2023-02-20T20:10:45.626Z,52.15
2023-02-20T20:14:46.216Z,53.01
2023-02-20T20:18:47.769Z,53.03
2023-02-20T20:22:51.231Z,53.24
2023-02-20T20:26:54.433Z,53.23
2023-02-20T20:30:58.184Z,53.26
2023-02-20T20:34:58.986Z,53.70
2023-02-20T20:39:04.008Z,54.15
2023-02-20T20:43:08.517Z,54.59
2023-02-20T20:47:09.882Z,54.20
2023-02-20T20:51:11.112Z,55.16
2023-02-20T20:55:13.467Z,55.10
2023-02-20T20:59:18.097Z,55.64
2023-02-20T21:03:19.080Z,55.67
2023-02-20T21:07:21.180Z,55.69
2023-02-20T21:11:22.018Z,56.32
2023-02-20T21:15:25.667Z,56.88
2023-02-20T21:19:26.366Z,57.14
2023-02-20T21:23:27.266Z,57.11
2023-02-20T21:27:28.167Z,56.74
2023-02-20T21:31:31.511Z,56.80
2023-02-20T21:35:32.265Z,57.79
2023-02-20T21:39:32.911Z,57.18
2023-02-20T21:44:00.426Z,57.59
2023-02-20T21:48:03.820Z,57.55
2023-02-20T21:52:05.693Z,57.52
2023-02-20T21:56:08.480Z,57.52
2023-02-20T22:00:13.626Z,57.84
2023-02-20T22:04:15.353Z,57.89
2023-02-20T22:08:28.179Z,57.60
2023-02-20T22:12:41.169Z,57.91
2023-02-20T22:16:54.163Z,58.02
2023-02-20T22:21:09.722Z,58.01
2023-02-20T22:25:25.253Z,58.66
2023-02-20T22:29:41.047Z,57.99
2023-02-20T22:33:53.786Z,58.15
2023-02-20T22:38:09.436Z,58.35
2023-02-20T22:42:29.594Z,58.77
2023-02-20T22:46:53.030Z,58.81
2023-02-20T22:51:05.898Z,59.31
2023-02-20T22:55:22.448Z,59.82
2023-02-20T22:59:35.143Z,60.10
2023-02-20T23:03:48.034Z,60.05
2023-02-20T23:08:00.835Z,60.23
2023-02-20T23:12:16.736Z,60.40
2023-02-20T23:16:34.417Z,59.81
2023-02-20T23:20:47.230Z,59.98
2023-02-20T23:25:00.156Z,60.81
2023-02-20T23:29:15.944Z,61.16
2023-02-20T23:33:28.738Z,61.20
2023-02-20T23:37:43.098Z,61.78
2023-02-20T23:42:00.254Z,61.31
2023-02-20T23:46:15.953Z,62.09
2023-02-20T23:50:28.927Z,62.68
2023-02-20T23:54:41.754Z,62.52
2023-02-20T23:58:54.521Z,62.29
